Pomona, CA (91767)

3:42 PM PDT on September 23, 2014 (GMT -0700)
IAO Kingsley Elementary | Change Station
CLOSE
Current Station
Personal Weather Station
Location: Pomona, CA
Elevation: 942 ft
Nearby Weather Stations

Elev 942 ft 34.07 °N, 117.74 °W | Updated 18 seconds ago

Clear
Clear
98.2 °F
Feels Like 94 °F
N
9.2
Wind Variable Wind from SW
Gusts 9.2 mph

Today
High -- | Low -- °F
--% Chance of Precip.
Yesterday
High -- | Low -- °F
Precip. -- in
6:39 AM 6:46 PM
Waning Crescent, 0% visible
Pressure 29.95 in
Visibility 10.0 miles
Clouds Clear
Heat Index 94 °F
Dew Point 46 °F
Humidity 17%
Rainfall 0.00 in
Snow Depth 0 in , 0 in
UV 6 out of 12
Pollen 5.70 out of 12
Ozone Good
Flu Activity Not available.
METAR KPOC 232146Z 27005KT 10SM CLR 33/10 A2995

More Conditions Fewer Conditions

Pressure 29.95 in
Visibility 10.0 miles
Clouds Clear
Heat Index 94 °F
Dew Point 46 °F
Humidity 17%
Rainfall 0.00 in
Snow Depth 0 in , 0 in
UV 6 out of 12
Pollen 5.70 out of 12
Ozone Good
Flu Activity Not available.
METAR KPOC 232146Z 27005KT 10SM CLR 33/10 A2995

More Conditions Fewer Conditions

10-Day Weather Forecast

Almanac

Astronomy

Sep. 23, 2014 Rise Set
Actual Time 6:39 AM PDT 6:46 PM PDT
Civil Twilight 6:14 AM PDT 7:11 PM PDT
Nautical Twilight 5:45 AM PDT 7:40 PM PDT
Astronomical Twilight 5:16 AM PDT 8:09 PM PDT
Moon 6:08 AM PDT 6:28 PM PDT
Length of Visible Light 12h 56m
Length of Day
12h 06m
Tomorrow will be 2m 6s shorter.
Waning Crescent, 0% of the Moon is Illuminated
Today
Waning Crescent
Sep 24
New
Oct 1
First Quarter
Oct 8
Full
Oct 15
Last Quarter

Today's Extremes

State Highs State Lows

Community

WunderPhotos

Upload Photos

1,755,810 photos uploaded!

WunderBlogs® & News

Nearby

Air Quality

  Air Quality AQ Index Pollutant
Yesterday Good
OZONE
Current Good
OZONE
Wednesday Good
PM10
Wednesday Moderate
OZONE
Wednesday Good
CO
Wednesday Good
NO2

Snow Depth

Station Depth Elevation
Adin Mountain 0 in 6200 ft
Leavitt Meadows 0 in 7200 ft
Summit Meadow 0 in 9122 ft
CSS Lab 0 in 6900 ft

Earthquake Activity

City Distance Mag. Time & Date
Running Springs, California 42 miles 2.5 7:26 AM PDT
2014-09-22
Borrego Springs, California 98 miles 2.6 7:34 AM PDT
2014-09-21
Minimum magnitude displayed is 2.5.

Coastal Water Temperatures

Place Temperature
No Stations Reporting

Nearby Weather Stations